createdAt,value
2018-12-11T00:00:37.753Z,8.93
2018-12-11T00:03:04.392Z,9.53
2018-12-11T00:05:31.068Z,7.90
2018-12-11T00:07:57.713Z,9.00
2018-12-11T00:10:30.445Z,8.73
2018-12-11T00:12:57.578Z,9.63
2018-12-11T00:15:24.527Z,9.83
2018-12-11T00:17:52.409Z,9.03
2018-12-11T00:20:20.535Z,9.13
2018-12-11T00:22:47.310Z,8.70
2018-12-11T00:27:31.271Z,9.47
2018-12-11T00:29:58.636Z,9.27
2018-12-11T00:32:26.507Z,9.73
2018-12-11T00:35:42.374Z,9.13
2018-12-11T00:38:09.354Z,8.60
2018-12-11T00:40:36.008Z,9.17
2018-12-11T00:43:03.895Z,8.90
2018-12-11T00:45:30.544Z,9.40
2018-12-11T00:47:57.205Z,10.23
2018-12-11T00:50:24.694Z,9.90
2018-12-11T00:52:51.338Z,9.97
2018-12-11T00:55:18.272Z,9.47
2018-12-11T00:57:44.953Z,9.70
2018-12-11T01:00:11.601Z,9.23
2018-12-11T01:02:38.259Z,11.10
2018-12-11T01:05:05.481Z,10.40
2018-12-11T01:08:40.270Z,9.83
2018-12-11T01:11:07.122Z,11.53
2018-12-11T01:13:33.189Z,10.97
2018-12-11T01:15:59.407Z,10.27
2018-12-11T01:18:25.950Z,10.50
2018-12-11T01:20:51.868Z,10.30
2018-12-11T01:23:18.102Z,10.30
2018-12-11T01:25:44.363Z,11.83
2018-12-11T01:28:10.552Z,9.27
2018-12-11T01:30:36.825Z,9.10
2018-12-11T01:33:03.389Z,9.53
2018-12-11T01:35:29.697Z,10.97
2018-12-11T01:37:57.950Z,9.17
2018-12-11T01:40:24.614Z,9.47
2018-12-11T01:42:51.246Z,8.97
2018-12-11T01:45:17.852Z,9.83
2018-12-11T01:47:48.754Z,10.33
2018-12-11T01:50:14.827Z,9.17
2018-12-11T01:52:41.862Z,9.33
2018-12-11T01:55:08.328Z,8.73
2018-12-11T01:57:34.310Z,9.73
2018-12-11T02:00:00.610Z,9.37
2018-12-11T02:02:30.499Z,10.30
2018-12-11T02:04:56.687Z,9.03
2018-12-11T02:07:23.021Z,9.83
2018-12-11T02:09:49.172Z,9.33
2018-12-11T02:12:17.418Z,10.17
2018-12-11T02:14:43.698Z,10.60
2018-12-11T02:17:10.530Z,10.57
2018-12-11T02:19:37.313Z,10.30
2018-12-11T02:22:03.531Z,10.07
2018-12-11T02:24:29.640Z,9.37
2018-12-11T02:26:55.611Z,9.03
2018-12-11T02:29:22.378Z,9.70
2018-12-11T02:31:49.339Z,8.77
2018-12-11T02:34:16.776Z,10.50
2018-12-11T02:36:42.958Z,9.63
2018-12-11T02:39:09.524Z,9.30
2018-12-11T02:41:35.865Z,9.63
2018-12-11T02:44:02.114Z,9.43
2018-12-11T02:46:29.181Z,8.50
2018-12-11T02:48:55.344Z,9.47
2018-12-11T02:51:21.593Z,8.47
2018-12-11T02:53:48.386Z,8.67
2018-12-11T02:56:14.464Z,8.67
2018-12-11T02:58:40.665Z,9.57
2018-12-11T03:01:07.147Z,9.53
2018-12-11T03:03:33.122Z,9.73
2018-12-11T03:05:59.343Z,9.00
2018-12-11T03:08:25.678Z,8.80
2018-12-11T03:10:51.851Z,9.43
2018-12-11T03:13:18.055Z,9.60
2018-12-11T03:15:44.552Z,9.77
2018-12-11T03:18:10.471Z,9.63
2018-12-11T03:20:36.750Z,9.80
2018-12-11T03:23:03.436Z,9.30
2018-12-11T03:25:29.614Z,9.13
2018-12-11T03:27:55.795Z,9.80
2018-12-11T03:30:22.085Z,10.30
2018-12-11T03:32:48.280Z,10.20
2018-12-11T03:35:14.487Z,10.97
2018-12-11T03:37:41.305Z,11.10
2018-12-11T03:40:08.600Z,10.37
2018-12-11T03:42:34.864Z,12.87
2018-12-11T03:45:01.105Z,12.23
2018-12-11T03:47:27.340Z,13.07
2018-12-11T03:49:53.501Z,14.63
2018-12-11T03:52:22.372Z,14.23
2018-12-11T03:54:48.405Z,15.00
2018-12-11T03:57:14.672Z,14.73
2018-12-11T03:59:40.919Z,14.60
2018-12-11T04:02:07.105Z,15.10
2018-12-11T04:04:33.400Z,14.33
2018-12-11T04:06:59.526Z,14.53
2018-12-11T04:09:25.789Z,14.43
2018-12-11T04:11:52.646Z,13.33
2018-12-11T04:14:19.653Z,13.87
2018-12-11T04:16:45.720Z,13.27
2018-12-11T04:19:11.952Z,12.23
2018-12-11T04:21:38.232Z,14.10
2018-12-11T04:24:04.872Z,14.40
2018-12-11T04:26:31.085Z,14.73
2018-12-11T04:28:57.532Z,13.97
2018-12-11T04:31:23.481Z,13.83
2018-12-11T04:33:49.754Z,13.83
2018-12-11T04:36:16.344Z,14.97
2018-12-11T04:38:42.597Z,14.40
2018-12-11T04:41:08.807Z,14.20
2018-12-11T04:43:35.301Z,14.10
2018-12-11T04:46:01.277Z,14.03
2018-12-11T04:48:27.529Z,14.10
2018-12-11T04:50:54.594Z,14.43
2018-12-11T04:53:20.764Z,15.23
2018-12-11T04:55:47.013Z,15.17
2018-12-11T04:58:13.821Z,15.70
2018-12-11T05:00:39.884Z,16.20
2018-12-11T05:03:06.093Z,16.83
2018-12-11T05:05:32.372Z,17.43
2018-12-11T05:07:58.221Z,16.07
2018-12-11T05:10:24.401Z,16.23
2018-12-11T05:12:50.990Z,16.43
2018-12-11T05:15:17.253Z,16.73
2018-12-11T05:17:43.464Z,16.50
2018-12-11T05:20:09.742Z,16.73
2018-12-11T05:22:35.920Z,15.20
2018-12-11T05:25:02.165Z,16.60
2018-12-11T05:27:28.836Z,14.87
2018-12-11T05:29:55.033Z,15.67
2018-12-11T05:32:21.255Z,14.90
2018-12-11T05:34:47.560Z,14.77
2018-12-11T05:37:13.834Z,15.20
2018-12-11T05:39:39.946Z,14.63
2018-12-11T05:42:06.763Z,15.37
2018-12-11T05:44:32.802Z,16.37
2018-12-11T05:46:59.020Z,16.20
2018-12-11T05:49:25.301Z,15.07
2018-12-11T05:51:51.531Z,13.83
2018-12-11T05:54:17.731Z,14.43
2018-12-11T05:56:44.584Z,14.80
2018-12-11T05:59:10.578Z,13.57
2018-12-11T06:01:36.836Z,14.60
2018-12-11T06:04:03.090Z,14.67
2018-12-11T06:06:29.279Z,13.07
2018-12-11T06:08:55.497Z,13.23
2018-12-11T06:11:22.184Z,12.70
2018-12-11T06:13:48.431Z,12.90
2018-12-11T06:16:14.840Z,12.30
2018-12-11T06:18:40.938Z,12.70
2018-12-11T06:21:07.039Z,12.37
2018-12-11T06:23:33.286Z,13.40
2018-12-11T06:25:59.561Z,11.80
2018-12-11T06:28:25.744Z,12.63
2018-12-11T06:30:51.960Z,13.73
2018-12-11T06:33:18.475Z,14.37
2018-12-11T06:35:44.464Z,15.47
2018-12-11T06:38:10.646Z,13.83
2018-12-11T06:40:36.923Z,15.23
2018-12-11T06:43:09.639Z,15.03
2018-12-11T06:45:36.105Z,16.00
2018-12-11T06:48:02.156Z,16.80
2018-12-11T06:50:29.207Z,14.97
2018-12-11T06:52:55.440Z,17.43
2018-12-11T06:55:22.265Z,17.43
2018-12-11T06:57:49.526Z,17.00
2018-12-11T07:00:15.696Z,18.80
2018-12-11T07:02:42.550Z,20.90
2018-12-11T07:05:08.576Z,18.87
2018-12-11T07:07:34.442Z,17.90
2018-12-11T07:10:00.887Z,15.20
2018-12-11T07:12:26.866Z,14.23
2018-12-11T07:14:53.097Z,15.33
2018-12-11T07:17:19.860Z,14.53
2018-12-11T07:19:45.957Z,13.03
2018-12-11T07:22:12.184Z,14.50
2018-12-11T07:24:38.454Z,13.40
2018-12-11T07:27:04.632Z,13.10
2018-12-11T07:29:30.862Z,13.00
2018-12-11T07:31:57.152Z,14.07
2018-12-11T07:34:23.325Z,14.27
2018-12-11T07:36:49.587Z,13.53
2018-12-11T07:39:15.834Z,14.47
2018-12-11T07:41:42.124Z,13.87
2018-12-11T07:44:08.282Z,15.17
2018-12-11T07:46:34.784Z,15.87
2018-12-11T07:49:00.699Z,17.13
2018-12-11T07:51:26.977Z,16.77
2018-12-11T07:53:53.245Z,17.57
2018-12-11T07:56:19.374Z,18.27
2018-12-11T07:58:45.673Z,18.60
2018-12-11T08:01:11.882Z,18.93
2018-12-11T08:03:38.052Z,20.27
2018-12-11T08:06:04.331Z,18.47
2018-12-11T08:08:30.705Z,17.67
2018-12-11T08:10:56.775Z,22.27
2018-12-11T08:13:23.012Z,21.00
2018-12-11T08:15:49.804Z,19.37
2018-12-11T08:18:15.861Z,19.17
2018-12-11T08:20:42.065Z,17.30
2018-12-11T08:23:08.349Z,16.77
2018-12-11T08:25:34.530Z,16.37
2018-12-11T08:28:00.748Z,16.60
2018-12-11T08:30:27.017Z,16.27
2018-12-11T08:32:53.246Z,15.63
2018-12-11T08:35:19.504Z,15.33
2018-12-11T08:37:47.768Z,14.87
2018-12-11T08:40:13.978Z,14.80
2018-12-11T08:42:40.276Z,16.55
2018-12-11T08:45:06.448Z,15.83
2018-12-11T08:47:32.626Z,15.40
2018-12-11T08:49:58.888Z,15.33
2018-12-11T08:52:25.134Z,16.60
2018-12-11T08:54:51.310Z,15.70
2018-12-11T08:57:17.548Z,15.57
2018-12-11T08:59:43.830Z,15.60
2018-12-11T09:02:09.990Z,13.60
2018-12-11T09:04:36.248Z,14.60
2018-12-11T09:07:02.551Z,13.93
2018-12-11T09:09:28.683Z,17.53
2018-12-11T09:11:54.914Z,16.47
2018-12-11T09:14:21.189Z,15.30
2018-12-11T09:16:47.385Z,13.57
2018-12-11T09:19:13.251Z,13.53
2018-12-11T09:21:40.110Z,13.13
2018-12-11T09:24:06.061Z,12.27
2018-12-11T09:26:32.283Z,12.20
2018-12-11T09:28:58.614Z,13.03
2018-12-11T09:31:24.774Z,12.83
2018-12-11T09:33:50.968Z,13.43
2018-12-11T09:36:17.310Z,12.13
2018-12-11T09:38:43.422Z,11.33
2018-12-11T09:41:09.671Z,9.03
2018-12-11T09:43:35.904Z,8.67
2018-12-11T09:46:01.909Z,9.30
2018-12-11T09:48:27.938Z,11.33
2018-12-11T09:50:53.851Z,11.63
2018-12-11T09:53:19.979Z,10.93
2018-12-11T09:55:46.211Z,10.70
2018-12-11T09:58:12.487Z,10.27
2018-12-11T10:00:38.704Z,9.40
2018-12-11T10:03:04.928Z,9.83
2018-12-11T10:05:31.174Z,9.37
2018-12-11T10:07:57.016Z,9.70
2018-12-11T10:10:23.171Z,8.40
2018-12-11T10:12:49.432Z,8.63
2018-12-11T10:15:15.632Z,9.63
2018-12-11T10:17:41.896Z,8.97
2018-12-11T10:20:08.142Z,9.63
2018-12-11T10:22:34.367Z,8.13
2018-12-11T10:25:00.544Z,7.57
2018-12-11T10:27:26.820Z,7.93
2018-12-11T10:29:53.009Z,9.33
2018-12-11T10:32:19.238Z,7.10
2018-12-11T10:34:45.497Z,7.30
2018-12-11T10:37:11.698Z,6.77
2018-12-11T10:39:37.593Z,7.27
2018-12-11T10:42:03.521Z,6.50
2018-12-11T10:44:29.401Z,5.33
2018-12-11T10:46:55.353Z,5.97
2018-12-11T10:49:21.772Z,5.80
2018-12-11T10:51:47.668Z,5.17
2018-12-11T10:54:13.529Z,5.37
2018-12-11T10:56:39.526Z,5.97
2018-12-11T10:59:05.431Z,7.30
2018-12-11T11:01:33.332Z,5.50
2018-12-11T11:03:59.496Z,5.37
2018-12-11T11:06:25.495Z,5.03
2018-12-11T11:08:51.387Z,5.17
2018-12-11T11:11:17.329Z,5.50
2018-12-11T11:13:43.224Z,5.60
2018-12-11T11:16:11.205Z,5.77
2018-12-11T11:18:37.170Z,5.07
2018-12-11T11:25:36.788Z,4.57
2018-12-11T11:28:02.713Z,4.97
2018-12-11T11:30:28.586Z,4.93
2018-12-11T11:32:54.507Z,4.47
2018-12-11T11:38:12.909Z,5.43
2018-12-11T11:40:38.798Z,6.30
2018-12-11T11:43:04.695Z,5.40
2018-12-11T11:45:30.771Z,6.13
2018-12-11T11:47:56.822Z,6.33
2018-12-11T11:50:23.663Z,6.50
2018-12-11T11:52:49.742Z,6.17
2018-12-11T11:55:15.975Z,5.63
2018-12-11T11:57:42.236Z,6.10
2018-12-11T12:00:11.019Z,5.53
2018-12-11T12:02:37.076Z,6.17
2018-12-11T12:05:04.111Z,6.20
2018-12-11T12:07:30.373Z,6.63
2018-12-11T12:09:56.557Z,6.93
2018-12-11T12:12:22.790Z,7.70
2018-12-11T12:14:49.252Z,8.03
2018-12-11T12:17:15.721Z,7.33
2018-12-11T12:19:41.886Z,7.27
2018-12-11T12:22:08.151Z,7.23
2018-12-11T12:24:34.355Z,7.57
2018-12-11T12:27:00.574Z,7.53
2018-12-11T12:29:26.850Z,8.83
2018-12-11T12:31:53.012Z,8.03
2018-12-11T12:34:19.269Z,7.80
2018-12-11T12:36:45.224Z,7.67
2018-12-11T12:39:11.312Z,8.60
2018-12-11T12:41:37.542Z,7.47
2018-12-11T12:44:03.827Z,8.07
2018-12-11T12:46:35.781Z,7.23
2018-12-11T12:49:01.975Z,7.50
2018-12-11T12:51:28.234Z,7.70
2018-12-11T12:53:54.428Z,7.87
2018-12-11T12:56:20.701Z,7.00
2018-12-11T12:58:47.101Z,7.30
2018-12-11T13:01:13.096Z,6.90
2018-12-11T13:03:39.468Z,6.77
2018-12-11T13:06:05.599Z,6.97
2018-12-11T13:08:31.781Z,6.33
2018-12-11T13:10:58.022Z,5.93
2018-12-11T13:13:24.307Z,6.53
2018-12-11T13:15:50.517Z,6.57
2018-12-11T13:18:16.709Z,7.13
2018-12-11T13:20:42.976Z,6.60
2018-12-11T13:23:09.178Z,8.00
2018-12-11T13:25:35.391Z,7.73
2018-12-11T13:28:01.367Z,8.80
2018-12-11T13:30:27.426Z,8.57
2018-12-11T13:32:53.674Z,9.13
2018-12-11T13:35:20.478Z,8.67
2018-12-11T13:37:46.660Z,7.47
2018-12-11T13:40:13.983Z,5.77
2018-12-11T13:42:40.240Z,6.80
2018-12-11T13:45:07.260Z,6.13
2018-12-11T13:47:34.740Z,6.10
2018-12-11T13:50:01.534Z,6.43
2018-12-11T13:52:27.681Z,6.70
2018-12-11T13:54:53.814Z,7.63
2018-12-11T13:57:20.098Z,6.87
2018-12-11T13:59:46.264Z,6.27
2018-12-11T14:02:12.486Z,5.83
2018-12-11T14:04:39.321Z,4.63
2018-12-11T14:07:05.391Z,4.67
2018-12-11T14:09:38.943Z,5.70
2018-12-11T14:12:05.207Z,5.50
2018-12-11T14:14:31.456Z,5.53
2018-12-11T14:16:57.710Z,5.17
2018-12-11T14:19:23.880Z,4.87
2018-12-11T14:21:50.106Z,6.07
2018-12-11T14:24:16.404Z,5.93
2018-12-11T14:26:42.552Z,6.13
2018-12-11T14:29:08.795Z,6.13
2018-12-11T14:31:36.037Z,6.73
2018-12-11T14:34:02.210Z,7.13
2018-12-11T14:36:28.122Z,7.30
2018-12-11T14:38:54.184Z,5.97
2018-12-11T14:41:20.347Z,7.50
2018-12-11T14:43:46.573Z,6.97
2018-12-11T14:46:12.838Z,7.17
2018-12-11T14:48:39.052Z,8.07
2018-12-11T14:51:05.253Z,7.10
2018-12-11T14:53:31.187Z,7.67
2018-12-11T14:55:57.334Z,7.00
2018-12-11T14:58:23.599Z,7.40
2018-12-11T15:00:49.783Z,9.40
2018-12-11T15:03:16.161Z,8.60
2018-12-11T15:05:42.299Z,8.77
2018-12-11T15:08:08.508Z,8.73
2018-12-11T15:10:34.696Z,9.03
2018-12-11T15:13:00.940Z,8.23
2018-12-11T15:15:27.210Z,9.40
2018-12-11T15:17:53.361Z,11.27
2018-12-11T15:20:19.271Z,11.47
2018-12-11T15:22:45.473Z,10.87
2018-12-11T15:25:11.632Z,10.63
2018-12-11T15:27:37.903Z,10.37
2018-12-11T15:30:04.281Z,10.60
2018-12-11T15:32:30.317Z,10.90
2018-12-11T15:34:56.219Z,8.93
2018-12-11T15:37:22.121Z,10.43
2018-12-11T15:39:48.200Z,10.60
2018-12-11T15:42:14.412Z,10.63
2018-12-11T15:44:40.697Z,13.07
2018-12-11T15:47:06.904Z,13.17
2018-12-11T15:49:33.108Z,14.07
2018-12-11T15:51:58.981Z,13.47
2018-12-11T15:54:25.248Z,12.47
2018-12-11T15:56:52.047Z,14.17
2018-12-11T15:59:18.071Z,12.53
2018-12-11T16:01:44.125Z,12.73
2018-12-11T16:04:10.056Z,13.37
2018-12-11T16:06:36.392Z,14.37
2018-12-11T16:09:07.015Z,14.60
2018-12-11T16:11:33.304Z,15.33
2018-12-11T16:13:59.552Z,14.63
2018-12-11T16:16:25.712Z,15.90
2018-12-11T16:18:52.749Z,18.90
2018-12-11T16:21:19.060Z,17.20
2018-12-11T16:23:45.685Z,17.53
2018-12-11T16:26:11.880Z,18.57
2018-12-11T16:28:38.152Z,15.63
2018-12-11T16:31:04.310Z,14.27
2018-12-11T16:33:30.548Z,15.43
2018-12-11T16:35:56.840Z,14.47
2018-12-11T16:38:23.031Z,15.47
2018-12-11T16:40:49.234Z,15.47
2018-12-11T16:43:15.526Z,15.30
2018-12-11T16:45:41.679Z,15.77
2018-12-11T16:48:07.950Z,14.83
2018-12-11T16:50:34.206Z,14.20
2018-12-11T16:53:00.402Z,15.87
2018-12-11T16:55:26.629Z,15.37
2018-12-11T16:57:52.859Z,16.77
2018-12-11T17:00:19.052Z,15.47
2018-12-11T17:02:45.338Z,15.50
2018-12-11T17:05:11.575Z,16.23
2018-12-11T17:07:37.740Z,15.60
2018-12-11T17:10:04.026Z,14.80
2018-12-11T17:12:30.514Z,14.60
2018-12-11T17:14:58.451Z,14.10
2018-12-11T17:17:24.734Z,15.07
2018-12-11T17:19:51.814Z,16.40
2018-12-11T17:22:17.989Z,18.07
2018-12-11T17:24:44.240Z,16.90
2018-12-11T17:27:10.498Z,15.93
2018-12-11T17:29:36.664Z,15.17
2018-12-11T17:32:02.910Z,15.13
2018-12-11T17:34:29.185Z,15.10
2018-12-11T17:36:55.155Z,16.63
2018-12-11T17:39:21.192Z,16.63
2018-12-11T17:41:47.459Z,19.30
2018-12-11T17:44:13.627Z,17.10
2018-12-11T17:46:39.900Z,18.10
2018-12-11T17:49:06.145Z,17.17
2018-12-11T17:51:32.369Z,15.93
2018-12-11T17:53:58.573Z,16.77
2018-12-11T17:56:25.670Z,19.07
2018-12-11T17:58:51.871Z,21.53
2018-12-11T18:01:18.691Z,20.13
2018-12-11T18:03:45.262Z,18.70
2018-12-11T18:06:11.341Z,20.97
2018-12-11T18:08:37.599Z,22.87
2018-12-11T18:11:03.837Z,31.60
2018-12-11T18:13:30.015Z,25.97
2018-12-11T18:15:56.270Z,24.47
2018-12-11T18:18:23.044Z,23.30
2018-12-11T18:20:49.153Z,22.77
2018-12-11T18:23:15.353Z,26.27
2018-12-11T18:25:41.791Z,28.50
2018-12-11T18:28:07.780Z,29.20
2018-12-11T18:30:34.052Z,22.83
2018-12-11T18:33:00.296Z,21.17
2018-12-11T18:35:26.584Z,21.80
2018-12-11T18:37:52.456Z,20.17
2018-12-11T18:40:19.111Z,20.47
2018-12-11T18:42:45.198Z,19.90
2018-12-11T18:45:11.432Z,20.60
2018-12-11T18:47:37.658Z,18.10
2018-12-11T18:50:04.188Z,21.73
2018-12-11T18:52:31.479Z,24.43
2018-12-11T18:54:58.024Z,22.77
2018-12-11T18:57:24.208Z,23.67
2018-12-11T18:59:50.404Z,23.60
2018-12-11T19:02:16.693Z,22.37
2018-12-11T19:04:42.850Z,25.17
2018-12-11T19:07:09.115Z,26.63
2018-12-11T19:09:35.721Z,31.63
2018-12-11T19:12:01.988Z,33.03
2018-12-11T19:14:28.212Z,31.73
2018-12-11T19:16:54.449Z,28.97
2018-12-11T19:19:20.649Z,28.30
2018-12-11T19:21:46.889Z,27.90
2018-12-11T19:24:13.370Z,26.13
2018-12-11T19:26:39.310Z,27.77
2018-12-11T19:29:05.561Z,25.13
2018-12-11T19:31:32.658Z,27.63
2018-12-11T19:33:58.820Z,28.80
2018-12-11T19:36:25.093Z,28.80
2018-12-11T19:38:51.392Z,32.43
2018-12-11T19:41:17.522Z,31.33
2018-12-11T19:43:43.742Z,30.93
2018-12-11T19:46:10.047Z,31.67
2018-12-11T19:48:36.331Z,28.97
2018-12-11T19:51:03.170Z,29.70
2018-12-11T19:53:29.536Z,28.03
2018-12-11T19:55:56.011Z,27.00
2018-12-11T19:58:22.003Z,27.87
2018-12-11T20:00:48.759Z,31.77
2018-12-11T20:03:14.980Z,29.77
2018-12-11T20:05:41.126Z,32.20
2018-12-11T20:08:08.261Z,35.20
2018-12-11T20:10:34.682Z,36.40
2018-12-11T20:13:01.078Z,35.93
2018-12-11T20:15:27.213Z,35.70
2018-12-11T20:17:53.673Z,32.33
2018-12-11T20:20:23.410Z,33.97
2018-12-11T20:22:49.565Z,34.50
2018-12-11T20:25:15.856Z,33.90
2018-12-11T20:27:42.001Z,34.20
2018-12-11T20:30:08.526Z,37.53
2018-12-11T20:32:34.854Z,35.57
2018-12-11T20:35:02.636Z,36.10
2018-12-11T20:37:30.165Z,42.43
2018-12-11T20:39:56.628Z,43.40
2018-12-11T20:42:22.955Z,43.83
2018-12-11T20:44:49.311Z,43.33
2018-12-11T20:47:16.394Z,43.33
2018-12-11T20:49:43.043Z,42.47
2018-12-11T20:52:09.473Z,44.83
2018-12-11T20:54:35.548Z,42.97
2018-12-11T20:57:02.398Z,46.93
2018-12-11T20:59:29.195Z,45.93
2018-12-11T21:01:55.750Z,44.50
2018-12-11T21:04:22.577Z,46.07
2018-12-11T21:06:52.081Z,47.67
2018-12-11T21:09:18.154Z,46.00
2018-12-11T21:11:44.595Z,49.00
2018-12-11T21:14:10.816Z,46.60
2018-12-11T21:16:37.082Z,48.83
2018-12-11T21:19:03.999Z,48.57
2018-12-11T21:21:30.463Z,48.07
2018-12-11T21:23:56.913Z,47.53
2018-12-11T21:26:23.169Z,47.47
2018-12-11T21:28:49.509Z,44.47
2018-12-11T21:31:15.388Z,45.53
2018-12-11T21:33:41.621Z,44.67
2018-12-11T21:36:08.312Z,45.17
2018-12-11T21:38:34.512Z,44.30
2018-12-11T21:41:00.732Z,43.17
2018-12-11T21:43:26.995Z,45.60
2018-12-11T21:45:53.191Z,45.23
2018-12-11T21:48:19.489Z,47.07
2018-12-11T21:50:45.711Z,50.57
2018-12-11T21:53:12.704Z,48.90
2018-12-11T21:55:38.922Z,49.67
2018-12-11T21:58:05.261Z,50.63
2018-12-11T22:00:31.411Z,53.07
2018-12-11T22:02:57.593Z,57.17
2018-12-11T22:05:23.866Z,57.60
2018-12-11T22:07:50.047Z,53.93
2018-12-11T22:10:16.339Z,59.03
2018-12-11T22:12:42.616Z,53.27
2018-12-11T22:15:08.826Z,62.63
2018-12-11T22:17:34.970Z,67.10
2018-12-11T22:20:01.270Z,62.03
2018-12-11T22:22:27.412Z,57.57
2018-12-11T22:24:53.660Z,65.37
2018-12-11T22:27:19.955Z,60.43
2018-12-11T22:29:46.974Z,61.97
2018-12-11T22:32:13.156Z,71.00
2018-12-11T22:34:39.434Z,68.47
2018-12-11T22:37:05.642Z,64.33
2018-12-11T22:39:31.854Z,64.83
2018-12-11T22:41:58.125Z,67.60
2018-12-11T22:44:24.338Z,65.40
2018-12-11T22:46:50.541Z,64.67
2018-12-11T22:49:16.828Z,69.20
2018-12-11T22:51:43.232Z,91.47
2018-12-11T22:54:09.506Z,71.93
2018-12-11T22:56:35.489Z,69.27
2018-12-11T22:59:01.672Z,62.13
2018-12-11T23:01:27.926Z,62.97
2018-12-11T23:03:54.195Z,65.40
2018-12-11T23:06:20.395Z,60.87
2018-12-11T23:08:46.644Z,62.47
2018-12-11T23:11:13.277Z,60.83
2018-12-11T23:13:39.448Z,62.33
2018-12-11T23:16:06.494Z,59.73
2018-12-11T23:18:32.850Z,60.40
2018-12-11T23:20:58.957Z,62.53
2018-12-11T23:23:25.188Z,60.53
2018-12-11T23:25:51.462Z,59.70
2018-12-11T23:28:17.703Z,61.80
2018-12-11T23:30:43.872Z,59.17
2018-12-11T23:33:10.278Z,59.60
2018-12-11T23:35:36.338Z,59.33
2018-12-11T23:38:02.224Z,58.73
2018-12-11T23:40:28.654Z,61.43
2018-12-11T23:42:54.717Z,57.47
2018-12-11T23:45:20.837Z,62.50
2018-12-11T23:47:47.545Z,56.13
2018-12-11T23:50:13.724Z,61.60
2018-12-11T23:52:39.943Z,58.13
2018-12-11T23:55:06.421Z,56.07
2018-12-11T23:57:32.397Z,53.27
2018-12-11T23:59:58.620Z,52.30
